Framingham, Massachusetts
Current Conditions -  °F | °C
As of 2:53 AM on Thursday 29 Jan 2015 (Local Time) from KOWD Reporting Station
Clear Clear  
Wind Chill: -6°   Ceiling: Unl
Heat Index: -6°   Visibility: 10mi
Dew Point: -11°   Wind: 0mph
Humidity: 79%   Direction: NA
Pressure: 30.29"   Gusts: NA
Location:  42.28°N, 71.42°W
Report Text: KOWD 290753Z AUTO 00000KT 10SM CLR M21/M24 A3029 RMK AO2 SLP256 I1000 T12111239
Loading
Personal Weather Stations






























Interactive Weather Map New forecast layout! Learn more

10-Day Weather Forecast

Advertisements
Track Severe Weather on mobile